createdAt,value
2018-08-13T00:03:48.408Z,25.40
2018-08-13T00:08:52.070Z,25.41
2018-08-13T00:13:55.716Z,25.41
2018-08-13T00:18:59.399Z,25.41
2018-08-13T00:24:03.054Z,25.39
2018-08-13T00:29:06.671Z,25.39
2018-08-13T00:34:10.336Z,25.38
2018-08-13T00:39:14.422Z,25.38
2018-08-13T00:44:18.120Z,25.38
2018-08-13T00:49:21.884Z,25.32
2018-08-13T00:54:25.636Z,25.38
2018-08-13T00:59:29.272Z,25.36
2018-08-13T01:04:32.933Z,25.33
2018-08-13T01:09:36.587Z,25.35
2018-08-13T01:14:40.169Z,25.31
2018-08-13T01:19:43.784Z,25.29
2018-08-13T01:24:47.436Z,25.28
2018-08-13T01:29:50.991Z,25.27
2018-08-13T01:34:54.574Z,25.24
2018-08-13T01:39:58.635Z,25.22
2018-08-13T01:45:05.256Z,25.20
2018-08-13T01:50:10.661Z,25.19
2018-08-13T01:55:14.350Z,25.16
2018-08-13T02:00:17.959Z,25.13
2018-08-13T02:05:21.572Z,25.13
2018-08-13T02:10:25.225Z,25.11
2018-08-13T02:15:28.917Z,25.09
2018-08-13T02:20:32.624Z,25.06
2018-08-13T02:25:36.187Z,25.02
2018-08-13T02:35:49.082Z,25.00
2018-08-13T02:40:52.743Z,24.98
2018-08-13T02:45:56.416Z,24.96
2018-08-13T02:51:00.000Z,24.96
2018-08-13T02:56:03.690Z,24.94
2018-08-13T03:01:07.382Z,24.94
2018-08-13T03:06:11.054Z,24.93
2018-08-13T03:11:14.721Z,24.91
2018-08-13T03:16:18.314Z,24.88
2018-08-13T03:21:21.956Z,24.93
2018-08-13T03:26:25.845Z,24.88
2018-08-13T03:31:29.457Z,24.83
2018-08-13T03:36:33.188Z,24.79
2018-08-13T03:41:36.912Z,24.74
2018-08-13T03:46:40.593Z,24.26
2018-08-13T03:51:44.489Z,23.52
2018-08-13T03:56:48.209Z,23.55
2018-08-13T04:01:51.827Z,23.14
2018-08-13T04:11:58.129Z,21.34
2018-08-13T04:17:03.512Z,21.14
2018-08-13T04:22:07.185Z,20.94
2018-08-13T04:27:10.810Z,20.80
2018-08-13T04:32:14.451Z,20.89
2018-08-13T04:37:18.085Z,20.85
2018-08-13T04:42:21.725Z,20.70
2018-08-13T04:47:26.020Z,20.78
2018-08-13T04:52:29.627Z,20.63
2018-08-13T04:57:33.398Z,20.79
2018-08-13T05:02:37.110Z,20.69
2018-08-13T05:07:40.828Z,20.69
2018-08-13T05:12:44.485Z,20.63
2018-08-13T05:17:48.120Z,20.73
2018-08-13T05:22:51.750Z,20.80
2018-08-13T05:27:55.364Z,20.89
2018-08-13T05:32:59.088Z,20.87
2018-08-13T05:38:02.684Z,21.03
2018-08-13T05:43:06.758Z,21.12
2018-08-13T05:48:10.555Z,21.19
2018-08-13T05:53:14.171Z,21.17
2018-08-13T05:58:17.785Z,21.31
2018-08-13T06:03:21.457Z,21.48
2018-08-13T06:08:25.080Z,21.49
2018-08-13T06:13:28.816Z,21.50
2018-08-13T06:18:32.555Z,21.58
2018-08-13T06:23:36.191Z,21.67
2018-08-13T06:28:39.844Z,21.80
2018-08-13T06:33:43.478Z,21.95
2018-08-13T06:38:47.145Z,22.02
2018-08-13T06:43:50.804Z,22.11
2018-08-13T06:48:55.122Z,22.18
2018-08-13T06:53:58.829Z,22.28
2018-08-13T06:59:02.448Z,22.36
2018-08-13T07:04:06.074Z,22.44
2018-08-13T07:09:11.065Z,22.59
2018-08-13T07:14:14.677Z,22.75
2018-08-13T07:19:18.362Z,22.85
2018-08-13T07:24:21.993Z,22.93
2018-08-13T07:29:25.661Z,23.06
2018-08-13T07:34:29.515Z,23.19
2018-08-13T07:39:33.185Z,23.30
2018-08-13T07:44:36.848Z,23.41
2018-08-13T07:49:40.472Z,23.51
2018-08-13T07:54:44.067Z,23.61
2018-08-13T07:59:47.789Z,23.66
2018-08-13T08:04:51.430Z,23.79
2018-08-13T08:09:54.992Z,23.86
2018-08-13T08:14:58.692Z,23.93
2018-08-13T08:20:02.448Z,23.93
2018-08-13T08:25:12.430Z,24.01
2018-08-13T08:30:16.109Z,24.10
2018-08-13T08:35:19.825Z,24.18
2018-08-13T08:40:23.535Z,24.21
2018-08-13T08:45:28.095Z,24.21
2018-08-13T08:50:31.850Z,24.42
2018-08-13T08:55:35.558Z,24.50
2018-08-13T09:00:39.227Z,24.48
2018-08-13T09:05:42.906Z,24.49
2018-08-13T09:10:46.529Z,24.49
2018-08-13T09:15:50.223Z,24.50
2018-08-13T09:21:04.927Z,24.39
2018-08-13T09:26:19.660Z,24.37
2018-08-13T09:31:34.401Z,24.37
2018-08-13T09:36:38.142Z,24.37
2018-08-13T09:41:41.717Z,24.37
2018-08-13T09:46:45.400Z,24.39
2018-08-13T09:51:48.984Z,24.41
2018-08-13T09:56:52.625Z,24.43
2018-08-13T10:01:56.330Z,24.44
2018-08-13T10:06:59.932Z,24.46
2018-08-13T10:12:03.706Z,24.49
2018-08-13T10:17:07.298Z,24.49
2018-08-13T10:22:10.900Z,24.50
2018-08-13T10:27:14.598Z,24.52
2018-08-13T10:32:18.190Z,24.56
2018-08-13T10:37:21.806Z,24.59
2018-08-13T10:42:25.432Z,24.64
2018-08-13T10:47:29.037Z,24.66
2018-08-13T10:52:32.711Z,24.66
2018-08-13T10:57:36.396Z,24.67
2018-08-13T11:02:40.017Z,24.72
2018-08-13T11:07:43.738Z,24.76
2018-08-13T11:12:47.434Z,24.75
2018-08-13T11:17:51.075Z,24.76
2018-08-13T11:22:54.779Z,24.83
2018-08-13T11:28:04.638Z,24.82
2018-08-13T11:33:08.303Z,24.84
2018-08-13T11:38:11.872Z,24.86
2018-08-13T11:43:15.519Z,24.87
2018-08-13T11:48:19.163Z,24.89
2018-08-13T11:53:22.845Z,24.89
2018-08-13T11:58:26.549Z,24.91
2018-08-13T12:03:30.538Z,24.90
2018-08-13T12:08:34.216Z,24.91
2018-08-13T12:13:37.871Z,24.94
2018-08-13T12:18:41.537Z,25.04
2018-08-13T12:23:45.143Z,25.00
2018-08-13T12:28:48.770Z,24.97
2018-08-13T12:33:52.530Z,24.97
2018-08-13T12:38:56.170Z,24.96
2018-08-13T12:43:59.870Z,24.97
2018-08-13T12:49:03.600Z,24.97
2018-08-13T12:54:07.436Z,24.97
2018-08-13T12:59:11.091Z,24.97
2018-08-13T13:04:14.790Z,25.02
2018-08-13T13:09:18.553Z,25.00
2018-08-13T13:19:37.608Z,25.07
2018-08-13T13:24:41.312Z,25.17
2018-08-13T13:29:45.004Z,25.16
2018-08-13T13:34:48.660Z,25.13
2018-08-13T13:39:52.402Z,25.12
2018-08-13T13:44:56.062Z,25.12
2018-08-13T13:49:59.789Z,25.12
2018-08-13T13:55:05.930Z,25.12
2018-08-13T14:00:20.551Z,25.11
2018-08-13T14:05:24.425Z,25.11
2018-08-13T14:10:28.202Z,25.11
2018-08-13T14:15:31.867Z,25.11
2018-08-13T14:20:35.627Z,25.11
2018-08-13T14:25:39.290Z,25.10
2018-08-13T14:30:43.075Z,25.11
2018-08-13T14:35:47.213Z,25.10
2018-08-13T14:40:51.256Z,25.11
2018-08-13T14:45:55.044Z,25.11
2018-08-13T14:50:58.757Z,25.07
2018-08-13T14:56:02.440Z,25.06
2018-08-13T15:01:06.069Z,25.07
2018-08-13T15:06:09.691Z,25.05
2018-08-13T15:11:13.554Z,25.13
2018-08-13T15:16:17.339Z,25.17
2018-08-13T15:21:21.565Z,25.18
2018-08-13T15:26:25.382Z,25.24
2018-08-13T15:31:29.048Z,25.30
2018-08-13T15:36:32.794Z,25.34
2018-08-13T15:41:36.511Z,25.37
2018-08-13T15:46:40.108Z,25.40
2018-08-13T15:51:43.880Z,25.43
2018-08-13T15:56:47.506Z,25.45
2018-08-13T16:01:51.124Z,25.52
2018-08-13T16:06:54.807Z,25.56
2018-08-13T16:11:58.481Z,25.59
2018-08-13T16:17:02.195Z,25.30
2018-08-13T16:22:06.083Z,25.19
2018-08-13T16:27:09.794Z,25.56
2018-08-13T16:32:14.988Z,25.30
2018-08-13T16:37:19.647Z,25.47
2018-08-13T16:42:24.241Z,25.61
2018-08-13T16:47:28.904Z,25.49
2018-08-13T16:52:33.406Z,25.24
2018-08-13T16:57:38.353Z,25.36
2018-08-13T17:02:42.204Z,25.33
2018-08-13T17:07:46.337Z,25.32
2018-08-13T17:12:51.541Z,25.59
2018-08-13T17:17:58.191Z,25.32
2018-08-13T17:23:03.218Z,25.45
2018-08-13T17:28:08.178Z,25.64
2018-08-13T17:33:13.019Z,25.39
2018-08-13T17:38:17.855Z,25.43
2018-08-13T17:43:23.099Z,25.32
2018-08-13T17:48:26.911Z,25.35
2018-08-13T17:53:31.483Z,25.44
2018-08-13T17:58:35.805Z,25.39
2018-08-13T18:03:40.750Z,25.40
2018-08-13T18:08:45.432Z,25.50
2018-08-13T18:13:51.324Z,25.53
2018-08-13T18:18:56.250Z,25.27
2018-08-13T18:24:00.994Z,25.53
2018-08-13T18:29:05.768Z,25.40
2018-08-13T18:34:10.748Z,25.53
2018-08-13T18:39:14.368Z,25.62
2018-08-13T18:44:17.966Z,25.30
2018-08-13T18:49:22.125Z,25.71
2018-08-13T18:54:25.772Z,25.15
2018-08-13T18:59:29.461Z,25.08
2018-08-13T19:04:33.136Z,25.10
2018-08-13T19:09:36.770Z,24.98
2018-08-13T19:14:40.465Z,25.00
2018-08-13T19:19:44.225Z,24.98
2018-08-13T19:24:49.059Z,24.95
2018-08-13T19:29:52.684Z,24.93
2018-08-13T19:34:56.339Z,24.82
2018-08-13T19:40:00.010Z,24.81
2018-08-13T19:45:04.223Z,24.87
2018-08-13T19:50:09.288Z,25.07
2018-08-13T19:55:14.266Z,25.24
2018-08-13T20:00:21.526Z,25.19
2018-08-13T20:05:26.444Z,25.20
2018-08-13T20:10:30.147Z,25.20
2018-08-13T20:15:33.877Z,25.22
2018-08-13T20:20:37.679Z,25.26
2018-08-13T20:25:41.376Z,25.27
2018-08-13T20:30:45.036Z,25.29
2018-08-13T20:35:48.745Z,25.28
2018-08-13T20:40:52.453Z,25.30
2018-08-13T20:45:56.230Z,25.35
2018-08-13T20:50:59.795Z,25.38
2018-08-13T20:56:03.493Z,25.40
2018-08-13T21:01:07.313Z,25.42
2018-08-13T21:06:11.022Z,25.47
2018-08-13T21:11:14.741Z,25.43
2018-08-13T21:16:18.648Z,25.43
2018-08-13T21:21:22.332Z,25.38
2018-08-13T21:26:26.172Z,25.53
2018-08-13T21:31:29.844Z,25.53
2018-08-13T21:36:33.578Z,25.50
2018-08-13T21:41:37.387Z,25.50
2018-08-13T21:46:41.069Z,25.53
2018-08-13T21:51:44.730Z,25.53
2018-08-13T21:56:48.470Z,25.53
2018-08-13T22:01:54.412Z,25.55
2018-08-13T22:06:58.042Z,25.56
2018-08-13T22:12:01.843Z,25.55
2018-08-13T22:17:06.256Z,25.57
2018-08-13T22:22:09.986Z,25.58
2018-08-13T22:27:13.822Z,25.58
2018-08-13T22:32:17.518Z,25.58
2018-08-13T22:37:21.098Z,25.65
2018-08-13T22:42:24.880Z,25.63
2018-08-13T22:47:28.542Z,25.65
2018-08-13T22:52:32.279Z,25.64
2018-08-13T22:57:36.043Z,25.64
2018-08-13T23:02:39.651Z,25.64
2018-08-13T23:07:43.318Z,25.66
2018-08-13T23:12:48.330Z,25.65
2018-08-13T23:17:58.734Z,25.66
2018-08-13T23:23:03.265Z,25.65
2018-08-13T23:28:10.936Z,25.64
2018-08-13T23:33:14.582Z,25.66
2018-08-13T23:38:18.241Z,25.66
2018-08-13T23:43:21.937Z,25.68
2018-08-13T23:48:25.609Z,25.69
2018-08-13T23:53:29.353Z,25.68
2018-08-13T23:58:33.057Z,25.68
